sensor_id;sensor_type;location;lat;lon;timestamp;pressure;altitude;pressure_sealevel;temperature;humidity
36630;BME280;36256;42.154;23.002;2022-10-22T00:01:36;98096.78;;;7.37;100.00
36630;BME280;36256;42.154;23.002;2022-10-22T00:04:04;98081.28;;;7.29;100.00
36630;BME280;36256;42.154;23.002;2022-10-22T00:06:32;98094.44;;;7.32;100.00
36630;BME280;36256;42.154;23.002;2022-10-22T00:08:58;98088.16;;;7.21;100.00
36630;BME280;36256;42.154;23.002;2022-10-22T00:11:25;98088.91;;;7.25;100.00
36630;BME280;36256;42.154;23.002;2022-10-22T00:13:52;98081.78;;;7.21;100.00
36630;BME280;36256;42.154;23.002;2022-10-22T00:16:19;98081.75;;;7.24;100.00
36630;BME280;36256;42.154;23.002;2022-10-22T00:18:45;98093.31;;;7.26;100.00
36630;BME280;36256;42.154;23.002;2022-10-22T00:21:12;98090.56;;;7.19;100.00
36630;BME280;36256;42.154;23.002;2022-10-22T00:23:40;98087.03;;;7.15;100.00
36630;BME280;36256;42.154;23.002;2022-10-22T00:26:08;98077.13;;;7.07;99.29
36630;BME280;36256;42.154;23.002;2022-10-22T00:28:35;98070.09;;;6.92;99.15
36630;BME280;36256;42.154;23.002;2022-10-22T00:31:02;98070.09;;;6.92;100.00
36630;BME280;36256;42.154;23.002;2022-10-22T00:33:28;98054.25;;;6.78;100.00
36630;BME280;36256;42.154;23.002;2022-10-22T00:35:55;98057.41;;;6.84;100.00
36630;BME280;36256;42.154;23.002;2022-10-22T00:38:22;98066.16;;;6.86;100.00
36630;BME280;36256;42.154;23.002;2022-10-22T00:40:49;98067.66;;;6.94;100.00
36630;BME280;36256;42.154;23.002;2022-10-22T00:43:18;98066.44;;;6.95;100.00
36630;BME280;36256;42.154;23.002;2022-10-22T00:45:45;98067.72;;;6.90;100.00
36630;BME280;36256;42.154;23.002;2022-10-22T00:48:17;98064.50;;;6.92;100.00
36630;BME280;36256;42.154;23.002;2022-10-22T00:50:53;98068.91;;;6.89;100.00
36630;BME280;36256;42.154;23.002;2022-10-22T00:53:40;98075.72;;;6.85;100.00
36630;BME280;36256;42.154;23.002;2022-10-22T00:56:08;98066.19;;;6.79;100.00
36630;BME280;36256;42.154;23.002;2022-10-22T00:58:38;98067.13;;;6.62;100.00
36630;BME280;36256;42.154;23.002;2022-10-22T01:01:05;98075.09;;;6.60;100.00
36630;BME280;36256;42.154;23.002;2022-10-22T01:03:34;98071.91;;;6.61;100.00
36630;BME280;36256;42.154;23.002;2022-10-22T01:06:03;98071.13;;;6.61;100.00
36630;BME280;36256;42.154;23.002;2022-10-22T01:11:58;98060.81;;;6.51;100.00
36630;BME280;36256;42.154;23.002;2022-10-22T01:17:40;98077.66;;;6.37;100.00
36630;BME280;36256;42.154;23.002;2022-10-22T01:25:55;98076.50;;;6.30;100.00
36630;BME280;36256;42.154;23.002;2022-10-22T01:31:36;98072.81;;;6.48;100.00
36630;BME280;36256;42.154;23.002;2022-10-22T01:34:06;98074.41;;;6.45;100.00
36630;BME280;36256;42.154;23.002;2022-10-22T01:36:34;98074.00;;;6.47;100.00
36630;BME280;36256;42.154;23.002;2022-10-22T01:39:03;98072.84;;;6.41;100.00
36630;BME280;36256;42.154;23.002;2022-10-22T01:41:30;98071.31;;;6.32;100.00
36630;BME280;36256;42.154;23.002;2022-10-22T01:43:57;98070.56;;;6.21;100.00
36630;BME280;36256;42.154;23.002;2022-10-22T01:46:26;98049.91;;;6.15;100.00
36630;BME280;36256;42.154;23.002;2022-10-22T01:49:31;98053.88;;;6.18;100.00
36630;BME280;36256;42.154;23.002;2022-10-22T01:52:14;98048.97;;;6.36;100.00
36630;BME280;36256;42.154;23.002;2022-10-22T01:55:29;98044.84;;;6.55;100.00
36630;BME280;36256;42.154;23.002;2022-10-22T02:01:04;98036.06;;;6.60;100.00
36630;BME280;36256;42.154;23.002;2022-10-22T02:03:40;98036.09;;;6.53;100.00
36630;BME280;36256;42.154;23.002;2022-10-22T02:06:16;98025.75;;;6.57;100.00
36630;BME280;36256;42.154;23.002;2022-10-22T02:08:44;98029.78;;;6.49;100.00
36630;BME280;36256;42.154;23.002;2022-10-22T02:11:13;98032.25;;;6.40;100.00
36630;BME280;36256;42.154;23.002;2022-10-22T02:13:48;98033.50;;;6.28;100.00
36630;BME280;36256;42.154;23.002;2022-10-22T02:16:31;98029.97;;;6.20;100.00
36630;BME280;36256;42.154;23.002;2022-10-22T02:19:03;98036.38;;;6.10;100.00
36630;BME280;36256;42.154;23.002;2022-10-22T02:21:32;98038.78;;;6.08;100.00
36630;BME280;36256;42.154;23.002;2022-10-22T02:23:58;98049.94;;;6.12;100.00
36630;BME280;36256;42.154;23.002;2022-10-22T02:26:34;98039.63;;;6.05;100.00
36630;BME280;36256;42.154;23.002;2022-10-22T02:29:10;98049.94;;;6.08;100.00
36630;BME280;36256;42.154;23.002;2022-10-22T02:31:39;98045.59;;;6.00;100.00
36630;BME280;36256;42.154;23.002;2022-10-22T02:34:11;98050.00;;;5.94;100.00
36630;BME280;36256;42.154;23.002;2022-10-22T02:36:42;98040.47;;;5.95;100.00
36630;BME280;36256;42.154;23.002;2022-10-22T02:39:15;98046.78;;;6.03;100.00
36630;BME280;36256;42.154;23.002;2022-10-22T02:41:47;98049.19;;;6.01;100.00
36630;BME280;36256;42.154;23.002;2022-10-22T02:44:14;98048.00;;;5.98;100.00
36630;BME280;36256;42.154;23.002;2022-10-22T02:46:41;98057.09;;;6.09;100.00
36630;BME280;36256;42.154;23.002;2022-10-22T02:49:08;98053.94;;;6.07;100.00
36630;BME280;36256;42.154;23.002;2022-10-22T02:51:35;98070.63;;;6.14;100.00
36630;BME280;36256;42.154;23.002;2022-10-22T02:54:01;98063.38;;;6.24;100.00
36630;BME280;36256;42.154;23.002;2022-10-22T02:56:28;98066.59;;;6.22;100.00
36630;BME280;36256;42.154;23.002;2022-10-22T02:58:54;98052.19;;;6.34;100.00
36630;BME280;36256;42.154;23.002;2022-10-22T03:01:21;98050.53;;;6.41;100.00
36630;BME280;36256;42.154;23.002;2022-10-22T03:03:47;98038.28;;;6.31;100.00
36630;BME280;36256;42.154;23.002;2022-10-22T03:06:15;98050.91;;;6.43;100.00
36630;BME280;36256;42.154;23.002;2022-10-22T03:08:41;98067.25;;;6.41;100.00
36630;BME280;36256;42.154;23.002;2022-10-22T03:11:08;98077.63;;;6.40;100.00
36630;BME280;36256;42.154;23.002;2022-10-22T03:13:35;98083.25;;;6.29;100.00
36630;BME280;36256;42.154;23.002;2022-10-22T03:16:01;98084.06;;;6.33;100.00
36630;BME280;36256;42.154;23.002;2022-10-22T03:18:28;98087.19;;;6.39;100.00
36630;BME280;36256;42.154;23.002;2022-10-22T03:21:19;98083.25;;;6.29;100.00
36630;BME280;36256;42.154;23.002;2022-10-22T03:23:48;98091.66;;;6.22;100.00
36630;BME280;36256;42.154;23.002;2022-10-22T03:26:15;98089.69;;;6.23;100.00
36630;BME280;36256;42.154;23.002;2022-10-22T03:28:42;98094.09;;;6.13;100.00
36630;BME280;36256;42.154;23.002;2022-10-22T03:31:08;98091.34;;;6.10;100.00
36630;BME280;36256;42.154;23.002;2022-10-22T03:33:35;98090.56;;;6.02;100.00
36630;BME280;36256;42.154;23.002;2022-10-22T03:36:01;98082.66;;;5.97;100.00
36630;BME280;36256;42.154;23.002;2022-10-22T03:38:28;98089.75;;;6.05;100.00
36630;BME280;36256;42.154;23.002;2022-10-22T03:40:55;98101.66;;;6.16;100.00
36630;BME280;36256;42.154;23.002;2022-10-22T03:43:22;98092.84;;;6.21;100.00
36630;BME280;36256;42.154;23.002;2022-10-22T03:45:49;98102.47;;;6.13;100.00
36630;BME280;36256;42.154;23.002;2022-10-22T03:48:16;98096.53;;;6.04;100.00
36630;BME280;36256;42.154;23.002;2022-10-22T03:50:42;98096.91;;;6.06;100.00
36630;BME280;36256;42.154;23.002;2022-10-22T03:53:09;98098.16;;;6.02;100.00
36630;BME280;36256;42.154;23.002;2022-10-22T03:55:36;98097.72;;;6.07;100.00
36630;BME280;36256;42.154;23.002;2022-10-22T03:58:04;98099.31;;;6.08;100.00
36630;BME280;36256;42.154;23.002;2022-10-22T04:00:32;98092.94;;;6.07;100.00
36630;BME280;36256;42.154;23.002;2022-10-22T04:02:59;98100.88;;;6.09;100.00
36630;BME280;36256;42.154;23.002;2022-10-22T04:05:26;98102.47;;;6.06;100.00
36630;BME280;36256;42.154;23.002;2022-10-22T04:07:52;98098.53;;;6.04;100.00
36630;BME280;36256;42.154;23.002;2022-10-22T04:10:19;98094.53;;;6.05;100.00
36630;BME280;36256;42.154;23.002;2022-10-22T04:12:47;98100.88;;;6.12;100.00
36630;BME280;36256;42.154;23.002;2022-10-22T04:15:13;98092.91;;;6.14;99.22
36630;BME280;36256;42.154;23.002;2022-10-22T04:17:40;98087.34;;;6.14;100.00
36630;BME280;36256;42.154;23.002;2022-10-22T04:20:07;98083.72;;;6.17;100.00
36630;BME280;36256;42.154;23.002;2022-10-22T04:22:34;98088.16;;;6.04;100.00
36630;BME280;36256;42.154;23.002;2022-10-22T04:25:02;98078.25;;;5.96;100.00
36630;BME280;36256;42.154;23.002;2022-10-22T04:27:31;98076.28;;;5.90;100.00
36630;BME280;36256;42.154;23.002;2022-10-22T04:29:57;98068.34;;;5.88;100.00
36630;BME280;36256;42.154;23.002;2022-10-22T04:32:25;98064.34;;;5.89;100.00
36630;BME280;36256;42.154;23.002;2022-10-22T04:34:52;98059.94;;;5.99;100.00
36630;BME280;36256;42.154;23.002;2022-10-22T04:37:19;98058.75;;;5.96;100.00
36630;BME280;36256;42.154;23.002;2022-10-22T04:39:45;98051.63;;;5.92;100.00
36630;BME280;36256;42.154;23.002;2022-10-22T04:42:12;98061.56;;;5.89;100.00
36630;BME280;36256;42.154;23.002;2022-10-22T04:44:39;98065.94;;;5.83;100.00
36630;BME280;36256;42.154;23.002;2022-10-22T04:47:05;98054.06;;;5.76;100.00
36630;BME280;36256;42.154;23.002;2022-10-22T04:49:32;98052.50;;;5.68;100.00
36630;BME280;36256;42.154;23.002;2022-10-22T04:51:58;98059.72;;;5.44;100.00
36630;BME280;36256;42.154;23.002;2022-10-22T04:54:25;98055.81;;;5.20;100.00
36630;BME280;36256;42.154;23.002;2022-10-22T04:56:57;98051.84;;;5.07;100.00
36630;BME280;36256;42.154;23.002;2022-10-22T04:59:24;98062.19;;;5.10;100.00
36630;BME280;36256;42.154;23.002;2022-10-22T05:01:50;98056.63;;;5.10;100.00
36630;BME280;36256;42.154;23.002;2022-10-22T05:04:17;98050.25;;;5.17;100.00
36630;BME280;36256;42.154;23.002;2022-10-22T05:06:45;98049.47;;;5.13;100.00
36630;BME280;36256;42.154;23.002;2022-10-22T05:09:15;98055.81;;;5.13;100.00
36630;BME280;36256;42.154;23.002;2022-10-22T05:11:44;98051.44;;;5.23;100.00
36630;BME280;36256;42.154;23.002;2022-10-22T05:14:11;98058.97;;;5.26;100.00
36630;BME280;36256;42.154;23.002;2022-10-22T05:16:38;98062.50;;;5.44;100.00
36630;BME280;36256;42.154;23.002;2022-10-22T05:19:06;98058.94;;;5.40;100.00
36630;BME280;36256;42.154;23.002;2022-10-22T05:21:33;98074.06;;;5.32;100.00
36630;BME280;36256;42.154;23.002;2022-10-22T05:24:00;98077.66;;;5.25;100.00
36630;BME280;36256;42.154;23.002;2022-10-22T05:26:27;98082.81;;;5.27;100.00
36630;BME280;36256;42.154;23.002;2022-10-22T05:28:55;98074.88;;;5.29;100.00
36630;BME280;36256;42.154;23.002;2022-10-22T05:31:22;98072.50;;;5.27;100.00
36630;BME280;36256;42.154;23.002;2022-10-22T05:33:49;98066.91;;;5.24;100.00
36630;BME280;36256;42.154;23.002;2022-10-22T05:36:20;98070.13;;;5.19;100.00
36630;BME280;36256;42.154;23.002;2022-10-22T05:38:47;98085.22;;;5.25;100.00
36630;BME280;36256;42.154;23.002;2022-10-22T05:41:17;98079.59;;;5.39;100.00
36630;BME280;36256;42.154;23.002;2022-10-22T05:43:44;98076.03;;;5.42;100.00
36630;BME280;36256;42.154;23.002;2022-10-22T05:46:16;98086.72;;;5.61;100.00
36630;BME280;36256;42.154;23.002;2022-10-22T05:48:56;98084.66;;;5.79;100.00
36630;BME280;36256;42.154;23.002;2022-10-22T05:51:24;98094.59;;;5.94;100.00
36630;BME280;36256;42.154;23.002;2022-10-22T05:53:56;98095.31;;;6.12;100.00
36630;BME280;36256;42.154;23.002;2022-10-22T05:56:24;98096.75;;;6.42;100.00
36630;BME280;36256;42.154;23.002;2022-10-22T05:58:51;98092.59;;;6.64;100.00
36630;BME280;36256;42.154;23.002;2022-10-22T06:01:24;98090.19;;;6.69;100.00
36630;BME280;36256;42.154;23.002;2022-10-22T06:03:56;98101.94;;;6.94;100.00
36630;BME280;36256;42.154;23.002;2022-10-22T06:08:53;98101.31;;;7.61;95.22
36630;BME280;36256;42.154;23.002;2022-10-22T06:11:21;98106.31;;;7.80;94.90
36630;BME280;36256;42.154;23.002;2022-10-22T06:13:49;98111.66;;;8.02;93.95
36630;BME280;36256;42.154;23.002;2022-10-22T06:16:16;98105.78;;;8.23;92.10
36630;BME280;36256;42.154;23.002;2022-10-22T06:18:42;98093.50;;;8.17;93.48
36630;BME280;36256;42.154;23.002;2022-10-22T06:21:11;98114.94;;;8.27;93.03
36630;BME280;36256;42.154;23.002;2022-10-22T06:23:39;98104.97;;;8.26;92.54
36630;BME280;36256;42.154;23.002;2022-10-22T06:26:05;98100.56;;;8.25;92.38
36630;BME280;36256;42.154;23.002;2022-10-22T06:28:32;98104.19;;;8.25;92.45
36630;BME280;36256;42.154;23.002;2022-10-22T06:31:01;98100.09;;;8.60;90.61
36630;BME280;36256;42.154;23.002;2022-10-22T06:33:29;98114.22;;;8.80;89.66
36630;BME280;36256;42.154;23.002;2022-10-22T06:36:07;98098.00;;;8.94;88.80
36630;BME280;36256;42.154;23.002;2022-10-22T06:38:34;98077.59;;;8.94;88.35
36630;BME280;36256;42.154;23.002;2022-10-22T06:41:05;98102.41;;;9.18;88.07
36630;BME280;36256;42.154;23.002;2022-10-22T06:43:32;98110.66;;;9.25;88.31
36630;BME280;36256;42.154;23.002;2022-10-22T06:46:04;98108.59;;;9.29;89.29
36630;BME280;36256;42.154;23.002;2022-10-22T06:48:31;98109.84;;;9.28;88.26
36630;BME280;36256;42.154;23.002;2022-10-22T06:51:02;98113.72;;;9.58;87.09
36630;BME280;36256;42.154;23.002;2022-10-22T06:53:29;98107.50;;;9.89;85.34
36630;BME280;36256;42.154;23.002;2022-10-22T06:55:56;98103.88;;;10.12;84.22
36630;BME280;36256;42.154;23.002;2022-10-22T06:58:22;98102.44;;;10.23;84.17
36630;BME280;36256;42.154;23.002;2022-10-22T07:00:59;98101.56;;;10.46;82.85
36630;BME280;36256;42.154;23.002;2022-10-22T07:03:26;98098.69;;;10.85;81.23
36630;BME280;36256;42.154;23.002;2022-10-22T07:05:52;98094.56;;;11.22;79.73
36630;BME280;36256;42.154;23.002;2022-10-22T07:08:19;98092.00;;;11.44;79.73
36630;BME280;36256;42.154;23.002;2022-10-22T07:10:45;98095.84;;;11.50;79.41
36630;BME280;36256;42.154;23.002;2022-10-22T07:13:12;98102.00;;;11.77;79.11
36630;BME280;36256;42.154;23.002;2022-10-22T07:15:39;98094.75;;;11.92;78.18
36630;BME280;36256;42.154;23.002;2022-10-22T07:18:05;98095.81;;;12.11;76.88
36630;BME280;36256;42.154;23.002;2022-10-22T07:20:32;98088.94;;;12.53;76.02
36630;BME280;36256;42.154;23.002;2022-10-22T07:22:58;98085.81;;;12.63;74.19
36630;BME280;36256;42.154;23.002;2022-10-22T07:25:25;98083.66;;;12.55;72.96
36630;BME280;36256;42.154;23.002;2022-10-22T07:27:51;98080.09;;;12.80;72.45
36630;BME280;36256;42.154;23.002;2022-10-22T07:30:18;98078.16;;;13.27;70.53
36630;BME280;36256;42.154;23.002;2022-10-22T07:32:44;98072.97;;;13.38;69.48
36630;BME280;36256;42.154;23.002;2022-10-22T07:35:11;98074.50;;;13.52;69.86
36630;BME280;36256;42.154;23.002;2022-10-22T07:37:37;98069.84;;;13.70;69.18
36630;BME280;36256;42.154;23.002;2022-10-22T07:40:05;98073.97;;;14.12;66.08
36630;BME280;36256;42.154;23.002;2022-10-22T07:42:32;98072.00;;;14.44;65.33
36630;BME280;36256;42.154;23.002;2022-10-22T07:44:58;98070.41;;;14.43;64.61
36630;BME280;36256;42.154;23.002;2022-10-22T07:47:25;98061.41;;;14.57;64.21
36630;BME280;36256;42.154;23.002;2022-10-22T07:49:51;98063.59;;;14.53;63.86
36630;BME280;36256;42.154;23.002;2022-10-22T07:52:18;98063.53;;;14.74;63.38
36630;BME280;36256;42.154;23.002;2022-10-22T07:54:44;98052.69;;;15.13;63.24
36630;BME280;36256;42.154;23.002;2022-10-22T07:57:11;98058.53;;;15.18;63.18
36630;BME280;36256;42.154;23.002;2022-10-22T07:59:37;98059.50;;;15.24;63.81
36630;BME280;36256;42.154;23.002;2022-10-22T08:02:04;98053.84;;;15.33;63.09
36630;BME280;36256;42.154;23.002;2022-10-22T08:04:30;98065.91;;;15.16;64.34
36630;BME280;36256;42.154;23.002;2022-10-22T08:06:57;98056.16;;;15.65;63.73
36630;BME280;36256;42.154;23.002;2022-10-22T08:09:23;98055.53;;;15.89;62.97
36630;BME280;36256;42.154;23.002;2022-10-22T08:11:50;98042.00;;;16.02;60.76
36630;BME280;36256;42.154;23.002;2022-10-22T08:14:17;98041.09;;;16.05;60.91
36630;BME280;36256;42.154;23.002;2022-10-22T08:16:43;98034.94;;;16.84;58.98
36630;BME280;36256;42.154;23.002;2022-10-22T08:19:10;98019.66;;;17.71;56.68
36630;BME280;36256;42.154;23.002;2022-10-22T08:21:36;98030.50;;;17.49;57.26
36630;BME280;36256;42.154;23.002;2022-10-22T08:24:03;98023.03;;;17.84;55.18
36630;BME280;36256;42.154;23.002;2022-10-22T08:26:30;98022.00;;;18.11;55.81
36630;BME280;36256;42.154;23.002;2022-10-22T08:28:56;98014.19;;;18.06;54.60
36630;BME280;36256;42.154;23.002;2022-10-22T08:31:23;98014.84;;;17.62;56.50
36630;BME280;36256;42.154;23.002;2022-10-22T08:33:49;98014.88;;;17.30;56.54
36630;BME280;36256;42.154;23.002;2022-10-22T08:36:16;98014.84;;;17.06;57.62
36630;BME280;36256;42.154;23.002;2022-10-22T08:38:42;98017.63;;;17.39;57.01
36630;BME280;36256;42.154;23.002;2022-10-22T08:41:13;98011.78;;;17.89;56.12
36630;BME280;36256;42.154;23.002;2022-10-22T08:46:43;97996.53;;;19.58;52.21
36630;BME280;36256;42.154;23.002;2022-10-22T08:49:23;97981.88;;;19.86;50.82
36630;BME280;36256;42.154;23.002;2022-10-22T08:51:51;97982.91;;;19.28;52.36
36630;BME280;36256;42.154;23.002;2022-10-22T08:57:11;97982.59;;;20.06;49.98
36630;BME280;36256;42.154;23.002;2022-10-22T09:07:42;97966.03;;;22.70;44.31
36630;BME280;36256;42.154;23.002;2022-10-22T09:10:11;97962.81;;;22.12;45.18
36630;BME280;36256;42.154;23.002;2022-10-22T09:12:38;97973.28;;;22.48;46.49
36630;BME280;36256;42.154;23.002;2022-10-22T09:15:05;97976.50;;;21.38;47.78
36630;BME280;36256;42.154;23.002;2022-10-22T09:17:49;97967.59;;;20.57;48.48
36630;BME280;36256;42.154;23.002;2022-10-22T09:23:17;97960.44;;;19.90;51.98
36630;BME280;36256;42.154;23.002;2022-10-22T09:25:45;97971.13;;;19.35;51.74
36630;BME280;36256;42.154;23.002;2022-10-22T09:28:14;97961.06;;;18.85;52.82
36630;BME280;36256;42.154;23.002;2022-10-22T09:30:41;97972.63;;;18.81;54.08
36630;BME280;36256;42.154;23.002;2022-10-22T09:35:44;97959.13;;;18.61;54.67
36630;BME280;36256;42.154;23.002;2022-10-22T09:38:13;97952.16;;;18.77;54.36
36630;BME280;36256;42.154;23.002;2022-10-22T09:40:46;97949.38;;;18.48;54.85
36630;BME280;36256;42.154;23.002;2022-10-22T09:43:13;97942.69;;;18.51;54.68
36630;BME280;36256;42.154;23.002;2022-10-22T09:45:41;97944.94;;;18.18;55.82
36630;BME280;36256;42.154;23.002;2022-10-22T09:50:49;97936.19;;;18.36;58.63
36630;BME280;36256;42.154;23.002;2022-10-22T09:53:29;97920.16;;;18.47;55.71
36630;BME280;36256;42.154;23.002;2022-10-22T09:55:58;97922.88;;;18.56;55.21
36630;BME280;36256;42.154;23.002;2022-10-22T09:58:25;97911.69;;;18.67;55.44
36630;BME280;36256;42.154;23.002;2022-10-22T10:00:53;97905.53;;;18.54;54.91
36630;BME280;36256;42.154;23.002;2022-10-22T10:03:24;97899.94;;;18.60;56.89
36630;BME280;36256;42.154;23.002;2022-10-22T10:05:54;97899.91;;;18.74;56.12
36630;BME280;36256;42.154;23.002;2022-10-22T10:08:28;97893.59;;;18.85;55.07
36630;BME280;36256;42.154;23.002;2022-10-22T10:13:50;97871.19;;;18.93;54.84
36630;BME280;36256;42.154;23.002;2022-10-22T10:19:29;97861.69;;;19.16;54.37
36630;BME280;36256;42.154;23.002;2022-10-22T10:22:19;97854.72;;;19.37;53.66
36630;BME280;36256;42.154;23.002;2022-10-22T10:25:02;97855.50;;;19.37;53.18
36630;BME280;36256;42.154;23.002;2022-10-22T10:27:55;97856.22;;;19.52;52.88
36630;BME280;36256;42.154;23.002;2022-10-22T10:30:26;97847.16;;;19.54;52.98
36630;BME280;36256;42.154;23.002;2022-10-22T10:41:10;97830.13;;;19.85;50.35
36630;BME280;36256;42.154;23.002;2022-10-22T10:44:40;97834.28;;;20.15;49.76
36630;BME280;36256;42.154;23.002;2022-10-22T10:47:02;97819.66;;;20.28;49.30
36630;BME280;36256;42.154;23.002;2022-10-22T10:49:34;97817.94;;;20.42;49.54
36630;BME280;36256;42.154;23.002;2022-10-22T10:52:19;97796.41;;;20.41;48.15
36630;BME280;36256;42.154;23.002;2022-10-22T11:00:18;97787.31;;;20.79;48.85
36630;BME280;36256;42.154;23.002;2022-10-22T11:05:49;97776.88;;;21.18;47.44
36630;BME280;36256;42.154;23.002;2022-10-22T11:08:24;97773.28;;;21.34;45.29
36630;BME280;36256;42.154;23.002;2022-10-22T11:11:21;97761.06;;;21.28;45.08
36630;BME280;36256;42.154;23.002;2022-10-22T11:14:09;97751.50;;;21.42;45.37
36630;BME280;36256;42.154;23.002;2022-10-22T11:16:45;97751.25;;;21.51;43.46
36630;BME280;36256;42.154;23.002;2022-10-22T11:19:20;97743.22;;;21.66;44.19
36630;BME280;36256;42.154;23.002;2022-10-22T11:24:47;97732.63;;;21.83;43.80
36630;BME280;36256;42.154;23.002;2022-10-22T11:27:29;97729.22;;;21.79;42.67
36630;BME280;36256;42.154;23.002;2022-10-22T11:30:04;97723.75;;;21.81;42.41
36630;BME280;36256;42.154;23.002;2022-10-22T11:32:32;97708.16;;;21.71;39.18
36630;BME280;36256;42.154;23.002;2022-10-22T11:35:02;97695.44;;;21.72;38.75
36630;BME280;36256;42.154;23.002;2022-10-22T11:37:31;97700.94;;;21.87;38.74
36630;BME280;36256;42.154;23.002;2022-10-22T11:40:07;97692.06;;;22.02;37.72
36630;BME280;36256;42.154;23.002;2022-10-22T11:42:45;97691.31;;;22.07;39.06
36630;BME280;36256;42.154;23.002;2022-10-22T11:48:17;97676.13;;;22.39;35.79
36630;BME280;36256;42.154;23.002;2022-10-22T11:50:53;97693.03;;;22.37;36.31
36630;BME280;36256;42.154;23.002;2022-10-22T11:55:52;97683.09;;;22.55;37.20
36630;BME280;36256;42.154;23.002;2022-10-22T12:08:31;97676.59;;;22.60;34.93
36630;BME280;36256;42.154;23.002;2022-10-22T12:11:05;97676.56;;;22.71;35.01
36630;BME280;36256;42.154;23.002;2022-10-22T12:14:00;97685.13;;;22.71;35.44
36630;BME280;36256;42.154;23.002;2022-10-22T12:19:25;97689.06;;;22.68;35.06
36630;BME280;36256;42.154;23.002;2022-10-22T12:21:59;97686.47;;;22.64;35.51
36630;BME280;36256;42.154;23.002;2022-10-22T12:24:33;97690.63;;;22.69;35.62
36630;BME280;36256;42.154;23.002;2022-10-22T12:27:00;97684.59;;;22.78;34.19
36630;BME280;36256;42.154;23.002;2022-10-22T12:29:30;97690.03;;;22.87;34.29
36630;BME280;36256;42.154;23.002;2022-10-22T12:32:01;97686.59;;;23.00;33.87
36630;BME280;36256;42.154;23.002;2022-10-22T12:34:28;97680.84;;;23.00;33.64
36630;BME280;36256;42.154;23.002;2022-10-22T12:36:55;97675.09;;;23.05;33.00
36630;BME280;36256;42.154;23.002;2022-10-22T12:39:25;97673.00;;;23.06;34.85
36630;BME280;36256;42.154;23.002;2022-10-22T12:41:53;97670.41;;;23.08;32.63
36630;BME280;36256;42.154;23.002;2022-10-22T12:44:20;97669.81;;;23.15;33.42
36630;BME280;36256;42.154;23.002;2022-10-22T12:46:48;97662.50;;;23.19;33.72
36630;BME280;36256;42.154;23.002;2022-10-22T12:49:24;97669.75;;;23.26;33.54
36630;BME280;36256;42.154;23.002;2022-10-22T12:51:52;97665.59;;;23.21;33.11
36630;BME280;36256;42.154;23.002;2022-10-22T12:54:26;97658.59;;;23.22;35.28
36630;BME280;36256;42.154;23.002;2022-10-22T12:56:55;97652.63;;;23.20;33.38
36630;BME280;36256;42.154;23.002;2022-10-22T12:59:33;97653.91;;;23.19;33.14
36630;BME280;36256;42.154;23.002;2022-10-22T13:02:04;97654.25;;;23.10;34.43
36630;BME280;36256;42.154;23.002;2022-10-22T13:04:37;97655.00;;;23.16;34.46
36630;BME280;36256;42.154;23.002;2022-10-22T13:09:58;97658.44;;;23.04;34.01
36630;BME280;36256;42.154;23.002;2022-10-22T13:12:27;97661.81;;;23.02;34.03
36630;BME280;36256;42.154;23.002;2022-10-22T13:14:54;97657.44;;;22.96;33.97
36630;BME280;36256;42.154;23.002;2022-10-22T13:17:38;97661.91;;;22.91;34.98
36630;BME280;36256;42.154;23.002;2022-10-22T13:20:20;97645.84;;;22.77;34.54
36630;BME280;36256;42.154;23.002;2022-10-22T13:22:54;97645.56;;;22.81;34.91
36630;BME280;36256;42.154;23.002;2022-10-22T13:25:30;97644.78;;;22.80;35.86
36630;BME280;36256;42.154;23.002;2022-10-22T13:28:00;97636.75;;;22.73;35.23
36630;BME280;36256;42.154;23.002;2022-10-22T13:30:35;97642.19;;;22.82;34.96
36630;BME280;36256;42.154;23.002;2022-10-22T13:33:06;97633.63;;;22.77;35.34
36630;BME280;36256;42.154;23.002;2022-10-22T13:35:42;97629.69;;;22.80;36.13
36630;BME280;36256;42.154;23.002;2022-10-22T13:38:17;97626.56;;;22.83;37.05
36630;BME280;36256;42.154;23.002;2022-10-22T13:40:45;97621.34;;;22.87;37.67
36630;BME280;36256;42.154;23.002;2022-10-22T13:43:12;97629.41;;;22.89;37.62
36630;BME280;36256;42.154;23.002;2022-10-22T13:45:39;97613.00;;;22.89;36.28
36630;BME280;36256;42.154;23.002;2022-10-22T13:48:09;97622.66;;;22.86;35.81
36630;BME280;36256;42.154;23.002;2022-10-22T13:50:38;97620.34;;;22.79;35.53
36630;BME280;36256;42.154;23.002;2022-10-22T13:53:04;97624.53;;;22.78;35.08
36630;BME280;36256;42.154;23.002;2022-10-22T13:55:31;97617.22;;;22.77;35.46
36630;BME280;36256;42.154;23.002;2022-10-22T13:58:11;97606.00;;;22.85;35.08
36630;BME280;36256;42.154;23.002;2022-10-22T14:00:41;97602.13;;;22.82;35.89
36630;BME280;36256;42.154;23.002;2022-10-22T14:03:10;97608.41;;;22.75;36.45
36630;BME280;36256;42.154;23.002;2022-10-22T14:05:38;97601.94;;;22.69;36.65
36630;BME280;36256;42.154;23.002;2022-10-22T14:08:11;97613.13;;;22.67;36.71
36630;BME280;36256;42.154;23.002;2022-10-22T14:10:39;97608.50;;;22.53;37.47
36630;BME280;36256;42.154;23.002;2022-10-22T14:13:12;97616.03;;;22.50;38.06
36630;BME280;36256;42.154;23.002;2022-10-22T14:15:41;97606.72;;;22.39;38.32
36630;BME280;36256;42.154;23.002;2022-10-22T14:18:11;97610.09;;;22.43;38.87
36630;BME280;36256;42.154;23.002;2022-10-22T14:20:41;97611.16;;;22.40;39.35
36630;BME280;36256;42.154;23.002;2022-10-22T14:25:40;97602.13;;;22.25;39.34
36630;BME280;36256;42.154;23.002;2022-10-22T14:28:09;97606.53;;;22.26;39.89
36630;BME280;36256;42.154;23.002;2022-10-22T14:30:36;97612.50;;;22.22;39.82
36630;BME280;36256;42.154;23.002;2022-10-22T14:33:11;97612.78;;;22.19;40.25
36630;BME280;36256;42.154;23.002;2022-10-22T14:35:39;97616.19;;;22.12;40.45
36630;BME280;36256;42.154;23.002;2022-10-22T14:38:05;97617.53;;;22.00;41.20